sensor_id;sensor_type;location;lat;lon;timestamp;P1;durP1;ratioP1;P2;durP2;ratioP2
22622;SDS011;11478;51.094;7.030;2022-09-14T00:00:12;79.45;;;36.67;;
22622;SDS011;11478;51.094;7.030;2022-09-14T00:02:40;77.57;;;35.03;;
22622;SDS011;11478;51.094;7.030;2022-09-14T00:05:06;64.75;;;32.60;;
22622;SDS011;11478;51.094;7.030;2022-09-14T00:07:33;67.78;;;31.70;;
22622;SDS011;11478;51.094;7.030;2022-09-14T00:10:00;84.07;;;37.65;;
22622;SDS011;11478;51.094;7.030;2022-09-14T00:12:27;82.32;;;36.17;;
22622;SDS011;11478;51.094;7.030;2022-09-14T00:14:53;70.03;;;32.28;;
22622;SDS011;11478;51.094;7.030;2022-09-14T00:17:18;62.25;;;34.42;;
22622;SDS011;11478;51.094;7.030;2022-09-14T00:19:44;102.03;;;40.42;;
22622;SDS011;11478;51.094;7.030;2022-09-14T00:22:11;80.70;;;37.80;;
22622;SDS011;11478;51.094;7.030;2022-09-14T00:24:38;81.00;;;36.35;;
22622;SDS011;11478;51.094;7.030;2022-09-14T00:27:04;76.68;;;37.47;;
22622;SDS011;11478;51.094;7.030;2022-09-14T00:29:30;92.53;;;40.30;;
22622;SDS011;11478;51.094;7.030;2022-09-14T00:31:59;102.28;;;45.15;;
22622;SDS011;11478;51.094;7.030;2022-09-14T00:34:24;100.55;;;41.60;;
22622;SDS011;11478;51.094;7.030;2022-09-14T00:36:53;88.20;;;41.40;;
22622;SDS011;11478;51.094;7.030;2022-09-14T00:39:20;95.93;;;43.47;;
22622;SDS011;11478;51.094;7.030;2022-09-14T00:41:49;77.88;;;37.13;;
22622;SDS011;11478;51.094;7.030;2022-09-14T00:46:50;79.45;;;40.17;;
22622;SDS011;11478;51.094;7.030;2022-09-14T00:54:44;139.35;;;51.17;;
22622;SDS011;11478;51.094;7.030;2022-09-14T00:57:23;102.50;;;47.33;;
22622;SDS011;11478;51.094;7.030;2022-09-14T00:59:51;131.02;;;49.70;;
22622;SDS011;11478;51.094;7.030;2022-09-14T01:02:19;101.65;;;46.85;;
22622;SDS011;11478;51.094;7.030;2022-09-14T01:04:46;128.60;;;53.60;;
22622;SDS011;11478;51.094;7.030;2022-09-14T01:14:53;105.80;;;44.50;;
22622;SDS011;11478;51.094;7.030;2022-09-14T01:22:59;66.43;;;35.35;;
22622;SDS011;11478;51.094;7.030;2022-09-14T01:25:38;53.90;;;29.42;;
22622;SDS011;11478;51.094;7.030;2022-09-14T01:28:10;49.92;;;28.10;;
22622;SDS011;11478;51.094;7.030;2022-09-14T01:30:42;47.10;;;24.83;;
22622;SDS011;11478;51.094;7.030;2022-09-14T01:35:56;36.88;;;22.50;;
22622;SDS011;11478;51.094;7.030;2022-09-14T01:38:32;32.75;;;19.17;;
22622;SDS011;11478;51.094;7.030;2022-09-14T01:41:08;29.52;;;18.98;;
22622;SDS011;11478;51.094;7.030;2022-09-14T01:43:39;59.25;;;23.00;;
22622;SDS011;11478;51.094;7.030;2022-09-14T01:46:21;48.03;;;23.33;;
22622;SDS011;11478;51.094;7.030;2022-09-14T01:49:53;39.33;;;23.23;;
22622;SDS011;11478;51.094;7.030;2022-09-14T01:51:58;35.72;;;20.65;;
22622;SDS011;11478;51.094;7.030;2022-09-14T01:54:47;42.92;;;23.60;;
22622;SDS011;11478;51.094;7.030;2022-09-14T01:57:25;37.03;;;21.52;;
22622;SDS011;11478;51.094;7.030;2022-09-14T02:00:30;40.40;;;22.63;;
22622;SDS011;11478;51.094;7.030;2022-09-14T02:02:59;32.15;;;20.13;;
22622;SDS011;11478;51.094;7.030;2022-09-14T02:05:35;30.02;;;17.92;;
22622;SDS011;11478;51.094;7.030;2022-09-14T02:08:12;32.88;;;17.45;;
22622;SDS011;11478;51.094;7.030;2022-09-14T02:10:38;22.88;;;14.52;;
22622;SDS011;11478;51.094;7.030;2022-09-14T02:13:04;23.27;;;14.35;;
22622;SDS011;11478;51.094;7.030;2022-09-14T02:15:31;28.25;;;15.60;;
22622;SDS011;11478;51.094;7.030;2022-09-14T02:17:59;35.70;;;17.33;;
22622;SDS011;11478;51.094;7.030;2022-09-14T02:25:35;26.90;;;14.98;;
22622;SDS011;11478;51.094;7.030;2022-09-14T02:28:02;35.15;;;17.70;;
22622;SDS011;11478;51.094;7.030;2022-09-14T02:33:11;32.25;;;17.17;;
22622;SDS011;11478;51.094;7.030;2022-09-14T02:35:59;35.88;;;17.90;;
22622;SDS011;11478;51.094;7.030;2022-09-14T02:39:04;33.28;;;18.08;;
22622;SDS011;11478;51.094;7.030;2022-09-14T02:44:57;32.15;;;17.00;;
22622;SDS011;11478;51.094;7.030;2022-09-14T02:56:08;38.72;;;17.85;;
22622;SDS011;11478;51.094;7.030;2022-09-14T02:58:36;29.15;;;16.80;;
22622;SDS011;11478;51.094;7.030;2022-09-14T03:01:05;27.35;;;16.02;;
22622;SDS011;11478;51.094;7.030;2022-09-14T03:03:45;26.95;;;15.13;;
22622;SDS011;11478;51.094;7.030;2022-09-14T03:06:11;31.55;;;15.93;;
22622;SDS011;11478;51.094;7.030;2022-09-14T03:08:37;25.88;;;15.85;;
22622;SDS011;11478;51.094;7.030;2022-09-14T03:11:04;31.55;;;17.65;;
22622;SDS011;11478;51.094;7.030;2022-09-14T03:13:37;30.25;;;17.27;;
22622;SDS011;11478;51.094;7.030;2022-09-14T03:16:04;34.40;;;16.33;;
22622;SDS011;11478;51.094;7.030;2022-09-14T03:18:34;29.10;;;17.65;;
22622;SDS011;11478;51.094;7.030;2022-09-14T03:21:04;34.83;;;16.20;;
22622;SDS011;11478;51.094;7.030;2022-09-14T03:23:35;32.83;;;16.50;;
22622;SDS011;11478;51.094;7.030;2022-09-14T03:26:09;30.25;;;15.60;;
22622;SDS011;11478;51.094;7.030;2022-09-14T03:31:19;35.00;;;16.58;;
22622;SDS011;11478;51.094;7.030;2022-09-14T03:33:51;29.42;;;16.17;;
22622;SDS011;11478;51.094;7.030;2022-09-14T03:36:19;31.20;;;16.55;;
22622;SDS011;11478;51.094;7.030;2022-09-14T03:38:49;38.97;;;18.77;;
22622;SDS011;11478;51.094;7.030;2022-09-14T03:41:16;34.38;;;17.85;;
22622;SDS011;11478;51.094;7.030;2022-09-14T03:43:43;24.10;;;15.60;;
22622;SDS011;11478;51.094;7.030;2022-09-14T03:46:13;25.02;;;15.40;;
22622;SDS011;11478;51.094;7.030;2022-09-14T03:48:41;24.20;;;14.73;;
22622;SDS011;11478;51.094;7.030;2022-09-14T03:51:08;27.42;;;14.32;;
22622;SDS011;11478;51.094;7.030;2022-09-14T03:53:35;29.83;;;15.32;;
22622;SDS011;11478;51.094;7.030;2022-09-14T03:56:05;22.48;;;15.05;;
22622;SDS011;11478;51.094;7.030;2022-09-14T03:58:37;30.70;;;16.73;;
22622;SDS011;11478;51.094;7.030;2022-09-14T04:01:07;33.78;;;15.95;;
22622;SDS011;11478;51.094;7.030;2022-09-14T04:03:38;32.70;;;15.90;;
22622;SDS011;11478;51.094;7.030;2022-09-14T04:06:04;34.10;;;15.90;;
22622;SDS011;11478;51.094;7.030;2022-09-14T04:08:32;22.38;;;13.40;;
22622;SDS011;11478;51.094;7.030;2022-09-14T04:11:00;33.40;;;16.33;;
22622;SDS011;11478;51.094;7.030;2022-09-14T04:13:32;29.55;;;16.50;;
22622;SDS011;11478;51.094;7.030;2022-09-14T04:15:58;27.70;;;14.52;;
22622;SDS011;11478;51.094;7.030;2022-09-14T04:18:25;27.83;;;15.32;;
22622;SDS011;11478;51.094;7.030;2022-09-14T04:20:55;30.20;;;15.73;;
22622;SDS011;11478;51.094;7.030;2022-09-14T04:23:23;35.53;;;15.63;;
22622;SDS011;11478;51.094;7.030;2022-09-14T04:25:49;31.90;;;15.63;;
22622;SDS011;11478;51.094;7.030;2022-09-14T04:28:16;27.83;;;16.10;;
22622;SDS011;11478;51.094;7.030;2022-09-14T04:30:42;29.73;;;15.95;;
22622;SDS011;11478;51.094;7.030;2022-09-14T04:33:09;30.33;;;16.55;;
22622;SDS011;11478;51.094;7.030;2022-09-14T04:35:35;29.55;;;16.50;;
22622;SDS011;11478;51.094;7.030;2022-09-14T04:38:02;29.33;;;16.05;;
22622;SDS011;11478;51.094;7.030;2022-09-14T04:40:28;32.80;;;16.02;;
22622;SDS011;11478;51.094;7.030;2022-09-14T04:42:55;32.00;;;15.77;;
22622;SDS011;11478;51.094;7.030;2022-09-14T04:45:21;32.55;;;15.55;;
22622;SDS011;11478;51.094;7.030;2022-09-14T04:47:54;26.38;;;14.60;;
22622;SDS011;11478;51.094;7.030;2022-09-14T04:50:20;27.67;;;15.00;;
22622;SDS011;11478;51.094;7.030;2022-09-14T04:52:49;28.58;;;15.13;;
22622;SDS011;11478;51.094;7.030;2022-09-14T04:58:04;30.40;;;15.10;;
22622;SDS011;11478;51.094;7.030;2022-09-14T05:00:32;23.35;;;13.20;;
22622;SDS011;11478;51.094;7.030;2022-09-14T05:03:00;25.13;;;14.15;;
22622;SDS011;11478;51.094;7.030;2022-09-14T05:05:33;27.55;;;14.80;;
22622;SDS011;11478;51.094;7.030;2022-09-14T05:08:00;25.07;;;14.90;;
22622;SDS011;11478;51.094;7.030;2022-09-14T05:10:29;28.15;;;15.05;;
22622;SDS011;11478;51.094;7.030;2022-09-14T05:12:55;26.33;;;14.95;;
22622;SDS011;11478;51.094;7.030;2022-09-14T05:15:21;29.13;;;15.70;;
22622;SDS011;11478;51.094;7.030;2022-09-14T05:17:46;26.63;;;15.25;;
22622;SDS011;11478;51.094;7.030;2022-09-14T05:20:12;31.02;;;15.77;;
22622;SDS011;11478;51.094;7.030;2022-09-14T05:22:38;27.65;;;15.10;;
22622;SDS011;11478;51.094;7.030;2022-09-14T05:27:54;23.38;;;14.27;;
22622;SDS011;11478;51.094;7.030;2022-09-14T05:30:20;22.48;;;12.98;;
22622;SDS011;11478;51.094;7.030;2022-09-14T05:32:46;29.70;;;15.07;;
22622;SDS011;11478;51.094;7.030;2022-09-14T05:35:13;26.00;;;14.43;;
22622;SDS011;11478;51.094;7.030;2022-09-14T05:37:38;27.65;;;14.50;;
22622;SDS011;11478;51.094;7.030;2022-09-14T05:40:05;26.77;;;15.02;;
22622;SDS011;11478;51.094;7.030;2022-09-14T05:42:33;23.40;;;14.00;;
22622;SDS011;11478;51.094;7.030;2022-09-14T05:44:59;23.27;;;13.70;;
22622;SDS011;11478;51.094;7.030;2022-09-14T05:47:27;21.55;;;13.18;;
22622;SDS011;11478;51.094;7.030;2022-09-14T05:49:54;28.33;;;14.85;;
22622;SDS011;11478;51.094;7.030;2022-09-14T05:52:20;22.98;;;13.25;;
22622;SDS011;11478;51.094;7.030;2022-09-14T05:54:46;25.13;;;13.98;;
22622;SDS011;11478;51.094;7.030;2022-09-14T05:57:12;24.30;;;12.80;;
22622;SDS011;11478;51.094;7.030;2022-09-14T05:59:38;21.20;;;12.82;;
22622;SDS011;11478;51.094;7.030;2022-09-14T06:02:03;19.38;;;12.38;;
22622;SDS011;11478;51.094;7.030;2022-09-14T06:04:29;19.73;;;12.23;;
22622;SDS011;11478;51.094;7.030;2022-09-14T06:06:55;19.23;;;10.10;;
22622;SDS011;11478;51.094;7.030;2022-09-14T06:09:21;22.48;;;11.48;;
22622;SDS011;11478;51.094;7.030;2022-09-14T06:11:48;23.85;;;12.35;;
22622;SDS011;11478;51.094;7.030;2022-09-14T06:14:14;18.52;;;11.23;;
22622;SDS011;11478;51.094;7.030;2022-09-14T06:19:12;22.08;;;12.02;;
22622;SDS011;11478;51.094;7.030;2022-09-14T06:21:39;21.83;;;11.88;;
22622;SDS011;11478;51.094;7.030;2022-09-14T06:24:05;14.85;;;10.07;;
22622;SDS011;11478;51.094;7.030;2022-09-14T06:26:31;18.92;;;11.50;;
22622;SDS011;11478;51.094;7.030;2022-09-14T06:28:57;24.40;;;13.40;;
22622;SDS011;11478;51.094;7.030;2022-09-14T06:31:23;17.30;;;11.48;;
22622;SDS011;11478;51.094;7.030;2022-09-14T06:33:50;16.63;;;12.60;;
22622;SDS011;11478;51.094;7.030;2022-09-14T06:36:21;19.63;;;11.57;;
22622;SDS011;11478;51.094;7.030;2022-09-14T06:38:48;25.25;;;13.55;;
22622;SDS011;11478;51.094;7.030;2022-09-14T06:41:19;28.85;;;15.80;;
22622;SDS011;11478;51.094;7.030;2022-09-14T06:44:05;19.98;;;13.02;;
22622;SDS011;11478;51.094;7.030;2022-09-14T06:46:32;18.15;;;11.57;;
22622;SDS011;11478;51.094;7.030;2022-09-14T06:49:06;20.05;;;13.25;;
22622;SDS011;11478;51.094;7.030;2022-09-14T06:51:35;21.90;;;12.98;;
22622;SDS011;11478;51.094;7.030;2022-09-14T06:54:02;16.85;;;11.80;;
22622;SDS011;11478;51.094;7.030;2022-09-14T06:56:36;18.73;;;11.55;;
22622;SDS011;11478;51.094;7.030;2022-09-14T06:59:04;14.43;;;10.70;;
22622;SDS011;11478;51.094;7.030;2022-09-14T07:01:31;18.02;;;10.60;;
22622;SDS011;11478;51.094;7.030;2022-09-14T07:03:59;14.70;;;10.55;;
22622;SDS011;11478;51.094;7.030;2022-09-14T07:06:26;14.95;;;10.15;;
22622;SDS011;11478;51.094;7.030;2022-09-14T07:08:55;15.10;;;10.50;;
22622;SDS011;11478;51.094;7.030;2022-09-14T07:11:22;12.40;;;9.23;;
22622;SDS011;11478;51.094;7.030;2022-09-14T07:13:54;15.88;;;10.48;;
22622;SDS011;11478;51.094;7.030;2022-09-14T07:16:23;14.57;;;10.48;;
22622;SDS011;11478;51.094;7.030;2022-09-14T07:18:57;14.70;;;9.63;;
22622;SDS011;11478;51.094;7.030;2022-09-14T07:21:26;16.48;;;10.30;;
22622;SDS011;11478;51.094;7.030;2022-09-14T07:23:53;17.05;;;10.68;;
22622;SDS011;11478;51.094;7.030;2022-09-14T07:26:20;18.25;;;11.20;;
22622;SDS011;11478;51.094;7.030;2022-09-14T07:29:02;19.13;;;11.95;;
22622;SDS011;11478;51.094;7.030;2022-09-14T07:31:30;14.85;;;10.02;;
22622;SDS011;11478;51.094;7.030;2022-09-14T07:33:59;13.85;;;9.80;;
22622;SDS011;11478;51.094;7.030;2022-09-14T07:36:27;16.67;;;10.18;;
22622;SDS011;11478;51.094;7.030;2022-09-14T07:38:54;14.20;;;9.95;;
22622;SDS011;11478;51.094;7.030;2022-09-14T07:41:21;11.45;;;8.95;;
22622;SDS011;11478;51.094;7.030;2022-09-14T07:43:52;15.00;;;9.23;;
22622;SDS011;11478;51.094;7.030;2022-09-14T07:46:20;10.05;;;8.43;;
22622;SDS011;11478;51.094;7.030;2022-09-14T07:48:57;9.25;;;8.25;;
22622;SDS011;11478;51.094;7.030;2022-09-14T07:51:26;12.00;;;8.30;;
22622;SDS011;11478;51.094;7.030;2022-09-14T07:53:53;10.65;;;8.05;;
22622;SDS011;11478;51.094;7.030;2022-09-14T07:56:20;9.70;;;8.50;;
22622;SDS011;11478;51.094;7.030;2022-09-14T07:58:46;11.98;;;8.02;;
22622;SDS011;11478;51.094;7.030;2022-09-14T08:01:13;12.65;;;7.88;;
22622;SDS011;11478;51.094;7.030;2022-09-14T08:03:42;14.05;;;8.48;;
22622;SDS011;11478;51.094;7.030;2022-09-14T08:06:17;13.30;;;9.05;;
22622;SDS011;11478;51.094;7.030;2022-09-14T08:08:45;10.43;;;8.23;;
22622;SDS011;11478;51.094;7.030;2022-09-14T08:11:22;12.75;;;9.10;;
22622;SDS011;11478;51.094;7.030;2022-09-14T08:13:50;12.52;;;9.32;;
22622;SDS011;11478;51.094;7.030;2022-09-14T08:16:20;12.75;;;8.10;;
22622;SDS011;11478;51.094;7.030;2022-09-14T08:18:47;12.25;;;7.97;;
22622;SDS011;11478;51.094;7.030;2022-09-14T08:21:18;12.02;;;8.38;;
22622;SDS011;11478;51.094;7.030;2022-09-14T08:23:44;12.88;;;8.85;;
22622;SDS011;11478;51.094;7.030;2022-09-14T08:26:11;11.43;;;8.30;;
22622;SDS011;11478;51.094;7.030;2022-09-14T08:28:39;13.00;;;8.20;;
22622;SDS011;11478;51.094;7.030;2022-09-14T08:31:09;16.70;;;8.50;;
22622;SDS011;11478;51.094;7.030;2022-09-14T08:33:46;11.55;;;7.85;;
22622;SDS011;11478;51.094;7.030;2022-09-14T08:36:15;12.70;;;7.32;;
22622;SDS011;11478;51.094;7.030;2022-09-14T08:38:42;12.35;;;8.00;;
22622;SDS011;11478;51.094;7.030;2022-09-14T08:47:00;12.07;;;7.28;;
22622;SDS011;11478;51.094;7.030;2022-09-14T08:52:11;15.18;;;7.70;;
22622;SDS011;11478;51.094;7.030;2022-09-14T08:54:38;10.68;;;6.68;;
22622;SDS011;11478;51.094;7.030;2022-09-14T08:57:08;10.43;;;6.55;;
22622;SDS011;11478;51.094;7.030;2022-09-14T08:59:43;13.52;;;5.93;;
22622;SDS011;11478;51.094;7.030;2022-09-14T09:02:35;7.72;;;6.05;;
22622;SDS011;11478;51.094;7.030;2022-09-14T09:10:18;8.82;;;6.45;;
22622;SDS011;11478;51.094;7.030;2022-09-14T09:12:46;8.32;;;5.82;;
22622;SDS011;11478;51.094;7.030;2022-09-14T09:15:31;6.45;;;5.78;;
22622;SDS011;11478;51.094;7.030;2022-09-14T09:18:12;7.13;;;5.38;;
22622;SDS011;11478;51.094;7.030;2022-09-14T09:20:49;5.50;;;4.95;;
22622;SDS011;11478;51.094;7.030;2022-09-14T09:25:49;10.48;;;6.55;;
22622;SDS011;11478;51.094;7.030;2022-09-14T09:28:22;10.77;;;6.40;;
22622;SDS011;11478;51.094;7.030;2022-09-14T09:30:51;11.75;;;6.35;;
22622;SDS011;11478;51.094;7.030;2022-09-14T09:33:23;13.15;;;6.82;;
22622;SDS011;11478;51.094;7.030;2022-09-14T09:35:52;12.82;;;6.97;;
22622;SDS011;11478;51.094;7.030;2022-09-14T09:38:21;9.32;;;6.80;;
22622;SDS011;11478;51.094;7.030;2022-09-14T09:40:51;9.35;;;6.38;;
22622;SDS011;11478;51.094;7.030;2022-09-14T09:43:20;10.60;;;6.63;;
22622;SDS011;11478;51.094;7.030;2022-09-14T09:45:55;11.98;;;6.75;;
22622;SDS011;11478;51.094;7.030;2022-09-14T09:48:46;11.60;;;6.80;;
22622;SDS011;11478;51.094;7.030;2022-09-14T09:51:28;9.55;;;6.78;;
22622;SDS011;11478;51.094;7.030;2022-09-14T09:54:20;9.18;;;6.43;;
22622;SDS011;11478;51.094;7.030;2022-09-14T09:56:57;7.95;;;6.32;;
22622;SDS011;11478;51.094;7.030;2022-09-14T10:07:52;9.75;;;5.97;;
22622;SDS011;11478;51.094;7.030;2022-09-14T10:13:02;7.05;;;5.28;;
22622;SDS011;11478;51.094;7.030;2022-09-14T10:15:30;9.65;;;5.30;;
22622;SDS011;11478;51.094;7.030;2022-09-14T10:20:37;7.07;;;5.40;;
22622;SDS011;11478;51.094;7.030;2022-09-14T10:23:14;7.18;;;5.22;;
22622;SDS011;11478;51.094;7.030;2022-09-14T10:25:46;7.10;;;5.05;;
22622;SDS011;11478;51.094;7.030;2022-09-14T10:30:58;8.07;;;4.85;;
22622;SDS011;11478;51.094;7.030;2022-09-14T10:33:27;8.10;;;4.90;;
22622;SDS011;11478;51.094;7.030;2022-09-14T10:36:12;7.85;;;5.53;;
22622;SDS011;11478;51.094;7.030;2022-09-14T10:39:05;9.38;;;5.03;;
22622;SDS011;11478;51.094;7.030;2022-09-14T10:42:08;8.85;;;5.15;;
22622;SDS011;11478;51.094;7.030;2022-09-14T10:50:20;13.98;;;6.00;;
22622;SDS011;11478;51.094;7.030;2022-09-14T10:53:10;11.18;;;6.30;;
22622;SDS011;11478;51.094;7.030;2022-09-14T11:06:55;8.88;;;5.85;;
22622;SDS011;11478;51.094;7.030;2022-09-14T11:12:12;8.30;;;5.53;;
22622;SDS011;11478;51.094;7.030;2022-09-14T11:21:26;7.63;;;4.93;;
22622;SDS011;11478;51.094;7.030;2022-09-14T11:24:17;7.75;;;4.60;;
22622;SDS011;11478;51.094;7.030;2022-09-14T11:30:23;5.03;;;4.13;;
22622;SDS011;11478;51.094;7.030;2022-09-14T11:32:44;6.03;;;4.35;;
22622;SDS011;11478;51.094;7.030;2022-09-14T11:35:20;5.60;;;4.45;;
22622;SDS011;11478;51.094;7.030;2022-09-14T11:37:57;5.93;;;4.07;;
22622;SDS011;11478;51.094;7.030;2022-09-14T11:40:34;3.75;;;3.10;;
22622;SDS011;11478;51.094;7.030;2022-09-14T11:46:11;4.30;;;3.65;;
22622;SDS011;11478;51.094;7.030;2022-09-14T11:48:56;6.53;;;3.50;;
22622;SDS011;11478;51.094;7.030;2022-09-14T11:51:49;4.15;;;3.35;;
22622;SDS011;11478;51.094;7.030;2022-09-14T11:54:29;5.03;;;3.35;;
22622;SDS011;11478;51.094;7.030;2022-09-14T11:56:57;4.80;;;3.40;;
22622;SDS011;11478;51.094;7.030;2022-09-14T12:12:48;3.88;;;3.42;;
22622;SDS011;11478;51.094;7.030;2022-09-14T12:17:49;6.47;;;4.00;;
22622;SDS011;11478;51.094;7.030;2022-09-14T12:36:05;5.72;;;3.28;;
22622;SDS011;11478;51.094;7.030;2022-09-14T12:49:34;5.97;;;3.65;;
22622;SDS011;11478;51.094;7.030;2022-09-14T12:52:02;2.85;;;2.65;;
22622;SDS011;11478;51.094;7.030;2022-09-14T12:57:25;3.78;;;2.67;;
22622;SDS011;11478;51.094;7.030;2022-09-14T13:08:14;4.72;;;2.30;;
22622;SDS011;11478;51.094;7.030;2022-09-14T13:10:49;3.40;;;2.60;;
22622;SDS011;11478;51.094;7.030;2022-09-14T13:13:24;4.15;;;2.72;;
22622;SDS011;11478;51.094;7.030;2022-09-14T13:16:00;3.33;;;2.50;;
22622;SDS011;11478;51.094;7.030;2022-09-14T13:21:01;2.67;;;2.38;;
22622;SDS011;11478;51.094;7.030;2022-09-14T13:23:49;4.65;;;2.45;;
22622;SDS011;11478;51.094;7.030;2022-09-14T13:26:20;2.65;;;2.42;;
22622;SDS011;11478;51.094;7.030;2022-09-14T13:28:49;3.38;;;2.80;;
22622;SDS011;11478;51.094;7.030;2022-09-14T13:31:36;3.03;;;2.78;;
22622;SDS011;11478;51.094;7.030;2022-09-14T13:34:03;4.57;;;3.13;;
22622;SDS011;11478;51.094;7.030;2022-09-14T13:36:31;5.15;;;3.13;;
22622;SDS011;11478;51.094;7.030;2022-09-14T13:39:07;7.10;;;2.78;;
22622;SDS011;11478;51.094;7.030;2022-09-14T13:41:49;3.27;;;2.30;;
22622;SDS011;11478;51.094;7.030;2022-09-14T13:44:17;7.18;;;3.10;;
22622;SDS011;11478;51.094;7.030;2022-09-14T13:46:50;6.10;;;2.90;;
22622;SDS011;11478;51.094;7.030;2022-09-14T13:49:17;4.47;;;2.97;;
22622;SDS011;11478;51.094;7.030;2022-09-14T13:51:44;7.20;;;3.00;;
22622;SDS011;11478;51.094;7.030;2022-09-14T14:02:35;2.30;;;2.10;;
22622;SDS011;11478;51.094;7.030;2022-09-14T14:05:02;2.45;;;2.25;;
22622;SDS011;11478;51.094;7.030;2022-09-14T14:07:35;4.68;;;3.10;;
22622;SDS011;11478;51.094;7.030;2022-09-14T14:10:01;7.38;;;2.75;;
22622;SDS011;11478;51.094;7.030;2022-09-14T14:17:37;5.15;;;2.90;;
22622;SDS011;11478;51.094;7.030;2022-09-14T14:25:40;8.38;;;3.45;;
22622;SDS011;11478;51.094;7.030;2022-09-14T14:28:14;5.60;;;3.40;;
22622;SDS011;11478;51.094;7.030;2022-09-14T14:30:46;7.50;;;3.90;;
22622;SDS011;11478;51.094;7.030;2022-09-14T14:33:17;4.47;;;3.70;;
22622;SDS011;11478;51.094;7.030;2022-09-14T14:35:45;6.00;;;3.60;;
22622;SDS011;11478;51.094;7.030;2022-09-14T14:38:17;5.90;;;3.80;;
22622;SDS011;11478;51.094;7.030;2022-09-14T14:40:44;8.32;;;4.57;;
22622;SDS011;11478;51.094;7.030;2022-09-14T14:46:14;4.50;;;3.72;;
22622;SDS011;11478;51.094;7.030;2022-09-14T14:51:14;4.30;;;3.97;;
22622;SDS011;11478;51.094;7.030;2022-09-14T14:53:40;6.72;;;3.80;;
22622;SDS011;11478;51.094;7.030;2022-09-14T14:56:08;8.77;;;4.72;;
22622;SDS011;11478;51.094;7.030;2022-09-14T14:58:41;8.27;;;4.50;;
22622;SDS011;11478;51.094;7.030;2022-09-14T15:01:08;7.03;;;4.72;;
22622;SDS011;11478;51.094;7.030;2022-09-14T15:03:34;6.05;;;4.80;;
22622;SDS011;11478;51.094;7.030;2022-09-14T15:06:10;7.35;;;4.70;;
22622;SDS011;11478;51.094;7.030;2022-09-14T15:08:39;7.47;;;4.72;;
22622;SDS011;11478;51.094;7.030;2022-09-14T15:11:08;7.97;;;4.70;;
22622;SDS011;11478;51.094;7.030;2022-09-14T15:13:42;7.50;;;4.45;;
22622;SDS011;11478;51.094;7.030;2022-09-14T15:16:08;8.15;;;5.30;;
22622;SDS011;11478;51.094;7.030;2022-09-14T15:18:34;5.38;;;4.28;;
22622;SDS011;11478;51.094;7.030;2022-09-14T15:21:02;5.22;;;4.20;;
22622;SDS011;11478;51.094;7.030;2022-09-14T15:23:28;6.15;;;4.88;;
22622;SDS011;11478;51.094;7.030;2022-09-14T15:25:55;6.03;;;4.90;;
22622;SDS011;11478;51.094;7.030;2022-09-14T15:28:21;5.43;;;4.93;;
22622;SDS011;11478;51.094;7.030;2022-09-14T15:30:48;5.30;;;4.13;;
22622;SDS011;11478;51.094;7.030;2022-09-14T15:33:16;4.55;;;3.83;;
22622;SDS011;11478;51.094;7.030;2022-09-14T15:35:42;6.68;;;4.20;;
22622;SDS011;11478;51.094;7.030;2022-09-14T15:38:08;6.55;;;4.10;;
22622;SDS011;11478;51.094;7.030;2022-09-14T15:40:34;5.63;;;4.07;;
22622;SDS011;11478;51.094;7.030;2022-09-14T15:43:01;6.35;;;4.28;;
22622;SDS011;11478;51.094;7.030;2022-09-14T15:45:27;7.47;;;4.07;;
22622;SDS011;11478;51.094;7.030;2022-09-14T15:47:53;6.35;;;3.80;;
22622;SDS011;11478;51.094;7.030;2022-09-14T15:50:19;6.28;;;3.85;;
22622;SDS011;11478;51.094;7.030;2022-09-14T15:52:44;4.32;;;3.92;;
22622;SDS011;11478;51.094;7.030;2022-09-14T15:55:10;7.47;;;3.85;;
22622;SDS011;11478;51.094;7.030;2022-09-14T15:57:37;4.78;;;3.53;;
22622;SDS011;11478;51.094;7.030;2022-09-14T16:00:07;4.60;;;3.72;;
22622;SDS011;11478;51.094;7.030;2022-09-14T16:02:34;5.20;;;4.47;;
22622;SDS011;11478;51.094;7.030;2022-09-14T16:07:52;5.45;;;3.95;;
22622;SDS011;11478;51.094;7.030;2022-09-14T16:10:19;5.30;;;4.35;;
22622;SDS011;11478;51.094;7.030;2022-09-14T16:12:45;5.18;;;4.68;;
22622;SDS011;11478;51.094;7.030;2022-09-14T16:17:40;7.60;;;5.00;;
22622;SDS011;11478;51.094;7.030;2022-09-14T16:20:13;8.00;;;6.03;;
22622;SDS011;11478;51.094;7.030;2022-09-14T16:22:39;6.00;;;5.00;;
22622;SDS011;11478;51.094;7.030;2022-09-14T16:25:05;5.63;;;4.55;;
22622;SDS011;11478;51.094;7.030;2022-09-14T16:27:30;7.15;;;5.28;;
22622;SDS011;11478;51.094;7.030;2022-09-14T16:29:56;9.00;;;5.88;;
22622;SDS011;11478;51.094;7.030;2022-09-14T16:32:22;8.32;;;6.05;;
22622;SDS011;11478;51.094;7.030;2022-09-14T16:34:53;8.00;;;5.78;;
22622;SDS011;11478;51.094;7.030;2022-09-14T16:37:19;5.72;;;5.18;;
22622;SDS011;11478;51.094;7.030;2022-09-14T16:39:53;6.85;;;5.65;;
22622;SDS011;11478;51.094;7.030;2022-09-14T16:42:19;8.15;;;5.60;;
22622;SDS011;11478;51.094;7.030;2022-09-14T16:44:45;6.95;;;5.88;;
22622;SDS011;11478;51.094;7.030;2022-09-14T16:47:11;9.45;;;6.40;;
22622;SDS011;11478;51.094;7.030;2022-09-14T16:49:37;8.32;;;5.85;;
22622;SDS011;11478;51.094;7.030;2022-09-14T16:52:03;8.10;;;6.68;;
22622;SDS011;11478;51.094;7.030;2022-09-14T16:54:29;8.43;;;6.45;;
22622;SDS011;11478;51.094;7.030;2022-09-14T16:56:55;9.00;;;7.03;;
22622;SDS011;11478;51.094;7.030;2022-09-14T16:59:23;9.55;;;6.57;;
22622;SDS011;11478;51.094;7.030;2022-09-14T17:01:49;9.45;;;7.18;;
22622;SDS011;11478;51.094;7.030;2022-09-14T17:04:18;15.35;;;8.63;;
22622;SDS011;11478;51.094;7.030;2022-09-14T17:06:47;16.33;;;8.57;;
22622;SDS011;11478;51.094;7.030;2022-09-14T17:09:32;10.85;;;8.20;;
22622;SDS011;11478;51.094;7.030;2022-09-14T17:11:58;12.65;;;9.20;;
22622;SDS011;11478;51.094;7.030;2022-09-14T17:14:26;13.63;;;8.60;;
22622;SDS011;11478;51.094;7.030;2022-09-14T17:16:53;11.75;;;7.95;;
22622;SDS011;11478;51.094;7.030;2022-09-14T17:19:19;8.82;;;7.18;;
22622;SDS011;11478;51.094;7.030;2022-09-14T17:21:46;13.75;;;9.00;;
22622;SDS011;11478;51.094;7.030;2022-09-14T17:30:05;9.52;;;8.25;;
22622;SDS011;11478;51.094;7.030;2022-09-14T17:32:31;9.38;;;8.07;;
22622;SDS011;11478;51.094;7.030;2022-09-14T17:34:57;10.90;;;8.00;;
22622;SDS011;11478;51.094;7.030;2022-09-14T17:37:23;9.80;;;8.57;;
22622;SDS011;11478;51.094;7.030;2022-09-14T17:39:49;9.25;;;7.20;;
22622;SDS011;11478;51.094;7.030;2022-09-14T17:42:15;9.95;;;7.55;;
22622;SDS011;11478;51.094;7.030;2022-09-14T17:44:40;11.82;;;7.70;;
22622;SDS011;11478;51.094;7.030;2022-09-14T17:47:13;9.52;;;7.57;;
22622;SDS011;11478;51.094;7.030;2022-09-14T17:49:38;13.00;;;7.63;;
22622;SDS011;11478;51.094;7.030;2022-09-14T17:52:04;11.57;;;7.72;;
22622;SDS011;11478;51.094;7.030;2022-09-14T17:54:31;11.38;;;7.53;;
22622;SDS011;11478;51.094;7.030;2022-09-14T17:56:57;10.98;;;7.90;;
22622;SDS011;11478;51.094;7.030;2022-09-14T17:59:25;14.20;;;8.43;;
22622;SDS011;11478;51.094;7.030;2022-09-14T18:01:51;9.93;;;8.00;;
22622;SDS011;11478;51.094;7.030;2022-09-14T18:04:17;10.30;;;8.20;;
22622;SDS011;11478;51.094;7.030;2022-09-14T18:06:44;14.10;;;8.45;;
22622;SDS011;11478;51.094;7.030;2022-09-14T18:09:12;11.75;;;8.82;;
22622;SDS011;11478;51.094;7.030;2022-09-14T18:11:40;11.70;;;8.77;;
22622;SDS011;11478;51.094;7.030;2022-09-14T18:16:36;11.23;;;8.00;;
22622;SDS011;11478;51.094;7.030;2022-09-14T18:19:04;12.93;;;8.63;;
22622;SDS011;11478;51.094;7.030;2022-09-14T18:21:30;12.15;;;9.35;;
22622;SDS011;11478;51.094;7.030;2022-09-14T18:23:56;11.30;;;9.27;;